createdAt,value
2022-11-04T00:00:17.389Z,8.10
2022-11-04T00:04:34.766Z,8.20
2022-11-04T00:08:54.033Z,8.30
2022-11-04T00:13:11.440Z,8.30
2022-11-04T00:17:28.759Z,8.30
2022-11-04T00:22:04.976Z,8.30
2022-11-04T00:26:40.783Z,8.30
2022-11-04T00:31:18.778Z,8.30
2022-11-04T00:35:36.067Z,8.30
2022-11-04T00:39:53.580Z,8.40
2022-11-04T00:44:11.151Z,8.50
2022-11-04T00:48:28.500Z,8.50
2022-11-04T00:52:45.782Z,8.60
2022-11-04T00:57:03.392Z,8.60
2022-11-04T01:01:21.240Z,8.60
2022-11-04T01:05:38.702Z,8.70
2022-11-04T01:09:56.038Z,8.80
2022-11-04T01:14:14.163Z,8.80
2022-11-04T01:18:31.503Z,8.80
2022-11-04T01:22:48.975Z,8.90
2022-11-04T01:27:06.309Z,8.80
2022-11-04T01:31:27.625Z,8.90
2022-11-04T01:35:44.948Z,8.90
2022-11-04T01:40:02.371Z,9.00
2022-11-04T01:44:41.514Z,9.00
2022-11-04T01:49:24.327Z,9.10
2022-11-04T01:53:44.002Z,9.10
2022-11-04T01:58:04.912Z,9.20
2022-11-04T02:02:22.456Z,9.40
2022-11-04T02:06:40.014Z,9.70
2022-11-04T02:11:02.737Z,9.90
2022-11-04T02:15:34.247Z,9.90
2022-11-04T02:20:24.474Z,10.00
2022-11-04T02:25:06.705Z,9.90
2022-11-04T02:29:26.753Z,9.90
2022-11-04T02:34:13.780Z,9.90
2022-11-04T02:38:45.530Z,10.10
2022-11-04T02:43:21.517Z,10.30
2022-11-04T02:47:41.907Z,10.40
2022-11-04T02:52:06.774Z,10.40
2022-11-04T02:56:26.638Z,10.30
2022-11-04T03:00:45.192Z,10.30
2022-11-04T03:05:04.376Z,10.40
2022-11-04T03:09:23.250Z,10.50
2022-11-04T03:13:44.409Z,10.50
2022-11-04T03:18:04.472Z,10.60
2022-11-04T03:22:25.488Z,10.50
2022-11-04T03:26:55.203Z,10.50
2022-11-04T03:31:22.543Z,10.60
2022-11-04T03:35:40.059Z,10.90
2022-11-04T03:39:57.297Z,11.00
2022-11-04T03:44:14.876Z,11.10
2022-11-04T03:48:32.578Z,11.30
2022-11-04T03:52:50.133Z,11.10
2022-11-04T03:57:34.568Z,11.10
2022-11-04T04:02:04.641Z,11.10
2022-11-04T04:06:33.128Z,11.00
2022-11-04T04:11:29.361Z,10.80
2022-11-04T04:15:56.081Z,10.80
2022-11-04T04:20:18.447Z,10.70
2022-11-04T04:24:56.996Z,10.60
2022-11-04T04:29:15.202Z,10.50
2022-11-04T04:33:32.500Z,10.60
2022-11-04T04:37:52.536Z,10.50
2022-11-04T04:42:29.728Z,10.50
2022-11-04T04:46:49.882Z,10.40
2022-11-04T04:51:07.193Z,10.40
2022-11-04T04:55:24.529Z,10.30
2022-11-04T04:59:41.820Z,10.30
2022-11-04T05:03:59.589Z,10.30
2022-11-04T05:08:16.918Z,10.20
2022-11-04T05:12:57.713Z,10.20
2022-11-04T05:17:15.570Z,10.20
2022-11-04T05:21:32.939Z,10.20
2022-11-04T05:25:50.265Z,10.20
2022-11-04T05:30:08.323Z,10.20
2022-11-04T05:34:25.707Z,10.20
2022-11-04T05:38:44.077Z,10.20
2022-11-04T05:43:01.633Z,10.10
2022-11-04T05:47:18.981Z,10.10
2022-11-04T05:51:36.560Z,10.10
2022-11-04T05:55:53.897Z,10.10
2022-11-04T06:00:13.090Z,10.10
2022-11-04T06:04:30.522Z,10.00
2022-11-04T06:08:47.962Z,10.10
2022-11-04T06:13:05.282Z,10.10
2022-11-04T06:17:23.036Z,10.10
2022-11-04T06:21:40.607Z,10.10
2022-11-04T06:25:57.894Z,10.20
2022-11-04T06:30:16.753Z,10.20
2022-11-04T06:34:40.770Z,10.10
2022-11-04T06:39:04.149Z,10.10
2022-11-04T06:43:22.832Z,10.00
2022-11-04T06:47:41.981Z,10.00
2022-11-04T06:52:01.390Z,10.10
2022-11-04T06:56:19.330Z,10.20
2022-11-04T07:00:40.240Z,10.20
2022-11-04T07:09:15.981Z,10.20
2022-11-04T07:13:35.124Z,10.20
2022-11-04T07:17:52.792Z,10.40
2022-11-04T07:22:14.189Z,10.40
2022-11-04T07:26:34.951Z,10.50
2022-11-04T07:30:56.808Z,10.50
2022-11-04T07:35:15.128Z,10.50
2022-11-04T07:39:33.278Z,10.50
2022-11-04T07:43:51.878Z,10.60
2022-11-04T07:48:10.119Z,10.50
2022-11-04T07:52:28.148Z,10.50
2022-11-04T07:56:46.585Z,10.50
2022-11-04T08:01:07.652Z,10.40
2022-11-04T08:05:25.463Z,10.40
2022-11-04T08:09:43.103Z,10.40
2022-11-04T08:14:04.329Z,10.30
2022-11-04T08:18:21.702Z,10.30
2022-11-04T08:22:39.215Z,10.30
2022-11-04T08:26:56.584Z,10.30
2022-11-04T08:31:22.646Z,10.30
2022-11-04T08:35:42.813Z,10.30
2022-11-04T08:40:00.234Z,10.40
2022-11-04T08:44:17.958Z,10.40
2022-11-04T08:48:36.819Z,10.40
2022-11-04T08:52:54.305Z,10.40
2022-11-04T08:57:11.790Z,10.40
2022-11-04T09:01:35.422Z,10.30
2022-11-04T09:05:53.249Z,10.30
2022-11-04T09:10:11.626Z,10.20
2022-11-04T09:14:29.028Z,10.20
2022-11-04T09:18:46.306Z,10.10
2022-11-04T09:23:04.000Z,10.10
2022-11-04T09:27:21.411Z,10.10
2022-11-04T09:31:39.259Z,10.10
2022-11-04T09:35:57.939Z,10.10
2022-11-04T09:40:21.900Z,10.20
2022-11-04T09:45:21.287Z,10.20
2022-11-04T09:49:42.454Z,10.10
2022-11-04T09:54:04.883Z,10.20
2022-11-04T09:58:22.824Z,10.20
2022-11-04T10:02:55.099Z,10.10
2022-11-04T10:07:35.460Z,10.10
2022-11-04T10:11:55.870Z,10.10
2022-11-04T10:16:45.553Z,10.10
2022-11-04T10:21:17.996Z,10.10
2022-11-04T10:26:02.319Z,10.00
2022-11-04T10:30:22.701Z,10.00
2022-11-04T10:35:05.891Z,10.00
2022-11-04T10:39:31.056Z,10.00
2022-11-04T10:43:49.244Z,10.00
2022-11-04T10:48:17.739Z,10.00
2022-11-04T10:52:36.244Z,10.00
2022-11-04T10:56:56.428Z,9.90
2022-11-04T11:01:30.180Z,9.80
2022-11-04T11:05:49.493Z,9.60
2022-11-04T11:10:20.856Z,9.50
2022-11-04T11:14:42.788Z,9.60
2022-11-04T11:19:31.804Z,9.70
2022-11-04T11:23:51.212Z,9.80
2022-11-04T11:28:21.287Z,9.90
2022-11-04T11:32:43.398Z,9.90
2022-11-04T11:37:05.648Z,9.70
2022-11-04T11:41:29.048Z,9.80
2022-11-04T11:45:49.990Z,9.80
2022-11-04T11:50:19.660Z,10.00
2022-11-04T11:54:39.213Z,10.10
2022-11-04T12:13:27.775Z,9.60
2022-11-04T12:17:55.454Z,9.60
2022-11-04T12:22:39.577Z,9.60
2022-11-04T12:27:34.107Z,9.60
2022-11-04T12:32:19.883Z,9.60
2022-11-04T12:37:04.299Z,9.70
2022-11-04T12:42:14.283Z,9.80
2022-11-04T12:46:40.450Z,9.80
2022-11-04T12:51:33.100Z,9.80
2022-11-04T12:55:59.354Z,9.90
2022-11-04T13:00:24.778Z,9.90
2022-11-04T13:04:52.951Z,9.90
2022-11-04T13:09:37.876Z,10.00
2022-11-04T13:14:06.442Z,9.90
2022-11-04T13:18:29.002Z,9.90
2022-11-04T13:22:51.516Z,9.80
2022-11-04T13:27:19.788Z,9.80
2022-11-04T13:31:51.736Z,9.90
2022-11-04T13:36:37.184Z,9.90
2022-11-04T13:41:17.372Z,10.10
2022-11-04T13:45:51.278Z,10.30
2022-11-04T13:50:33.203Z,10.40
2022-11-04T13:54:57.177Z,10.40
2022-11-04T13:59:35.365Z,10.20
2022-11-04T14:04:13.716Z,10.10
2022-11-04T14:08:31.975Z,9.90
2022-11-04T14:12:49.412Z,9.90
2022-11-04T14:17:35.614Z,9.90
2022-11-04T14:22:08.103Z,9.80
2022-11-04T14:26:40.777Z,9.80
2022-11-04T14:31:16.879Z,9.90
2022-11-04T14:35:36.094Z,10.00
2022-11-04T14:39:57.818Z,9.70
2022-11-04T14:44:30.093Z,9.70
2022-11-04T14:48:54.289Z,9.60
2022-11-04T14:53:19.628Z,9.70
2022-11-04T14:57:47.212Z,9.60
2022-11-04T15:02:04.688Z,9.60
2022-11-04T15:06:53.607Z,9.60
2022-11-04T15:11:15.704Z,9.60
2022-11-04T15:15:41.626Z,9.50
2022-11-04T15:20:01.989Z,9.50
2022-11-04T15:24:19.369Z,9.50
2022-11-04T15:28:46.383Z,9.40
2022-11-04T15:33:04.480Z,9.40
2022-11-04T15:37:24.056Z,9.30
2022-11-04T15:42:01.324Z,9.30
2022-11-04T15:46:19.897Z,9.20
2022-11-04T15:50:38.618Z,9.10
2022-11-04T15:54:57.913Z,9.10
2022-11-04T15:59:20.321Z,9.00
2022-11-04T16:03:37.590Z,9.00
2022-11-04T16:08:13.950Z,8.90
2022-11-04T16:12:37.612Z,8.90
2022-11-04T16:16:55.045Z,8.80
2022-11-04T16:21:28.595Z,8.80
2022-11-04T16:25:46.031Z,8.70
2022-11-04T16:30:18.944Z,8.70
2022-11-04T16:34:36.345Z,8.70
2022-11-04T16:38:55.954Z,8.60
2022-11-04T16:43:16.365Z,8.60
2022-11-04T16:47:39.960Z,8.60
2022-11-04T16:52:03.262Z,8.60
2022-11-04T16:56:23.229Z,8.60
2022-11-04T17:00:40.928Z,8.60
2022-11-04T17:04:59.029Z,8.60
2022-11-04T17:09:23.288Z,8.60
2022-11-04T17:13:40.668Z,8.60
2022-11-04T17:17:57.979Z,8.50
2022-11-04T17:22:15.353Z,8.50
2022-11-04T17:26:33.360Z,8.50
2022-11-04T17:30:50.746Z,8.50
2022-11-04T17:35:08.778Z,8.40
2022-11-04T17:39:26.120Z,8.40
2022-11-04T17:44:01.548Z,8.40
2022-11-04T17:48:18.830Z,8.40
2022-11-04T17:52:36.943Z,8.30
2022-11-04T17:56:54.578Z,8.30
2022-11-04T18:01:14.451Z,8.30
2022-11-04T18:05:34.479Z,8.40
2022-11-04T18:09:52.105Z,8.40
2022-11-04T18:14:16.228Z,8.30
2022-11-04T18:18:34.122Z,8.30
2022-11-04T18:22:51.398Z,8.30
2022-11-04T18:27:08.799Z,8.40
2022-11-04T18:31:35.640Z,8.30
2022-11-04T18:35:52.982Z,8.30
2022-11-04T18:40:11.861Z,8.30
2022-11-04T18:44:29.342Z,8.30
2022-11-04T18:48:50.855Z,8.30
2022-11-04T18:53:08.426Z,8.20
2022-11-04T18:57:25.933Z,8.20
2022-11-04T19:01:45.655Z,8.20
2022-11-04T19:06:12.973Z,8.10
2022-11-04T19:10:30.345Z,8.10
2022-11-04T19:14:47.761Z,8.10
2022-11-04T19:19:07.240Z,8.10
2022-11-04T19:23:24.524Z,8.20
2022-11-04T19:27:42.519Z,8.20
2022-11-04T19:32:04.902Z,8.20
2022-11-04T19:36:26.025Z,8.30
2022-11-04T19:40:45.683Z,8.30
2022-11-04T19:45:07.269Z,8.20
2022-11-04T19:49:24.546Z,8.30
2022-11-04T19:53:42.019Z,8.30
2022-11-04T19:57:59.438Z,8.20
2022-11-04T20:02:17.068Z,8.30
2022-11-04T20:06:35.223Z,8.30
2022-11-04T20:10:52.671Z,8.40
2022-11-04T20:15:10.881Z,8.40
2022-11-04T20:19:31.084Z,8.40
2022-11-04T20:23:48.383Z,8.40
2022-11-04T20:28:05.823Z,8.50
2022-11-04T20:32:26.212Z,8.50
2022-11-04T20:36:43.666Z,8.60
2022-11-04T20:41:08.916Z,8.60
2022-11-04T20:45:26.383Z,8.50
2022-11-04T20:49:44.666Z,8.50
2022-11-04T20:54:04.382Z,8.40
2022-11-04T20:58:21.681Z,8.40
2022-11-04T21:02:39.207Z,8.40
2022-11-04T21:06:56.607Z,8.40
2022-11-04T21:11:14.030Z,8.30
2022-11-04T21:15:44.138Z,8.20
2022-11-04T21:20:01.839Z,8.20
2022-11-04T21:24:19.269Z,8.20
2022-11-04T21:28:38.241Z,8.10
2022-11-04T21:32:57.098Z,8.00
2022-11-04T21:37:14.589Z,8.10
2022-11-04T21:41:37.541Z,8.10
2022-11-04T21:46:08.229Z,8.20
2022-11-04T21:50:25.568Z,8.10
2022-11-04T21:54:42.980Z,8.10
2022-11-04T21:59:01.245Z,8.20
2022-11-04T22:03:18.543Z,8.20
2022-11-04T22:07:54.275Z,8.20
2022-11-04T22:12:11.619Z,8.10
2022-11-04T22:16:31.849Z,8.00
2022-11-04T22:20:49.373Z,7.90
2022-11-04T22:25:07.970Z,7.80
2022-11-04T22:29:25.790Z,7.80
2022-11-04T22:33:43.358Z,7.60
2022-11-04T22:38:00.714Z,7.50
2022-11-04T22:42:18.050Z,7.50
2022-11-04T22:46:35.353Z,7.50
2022-11-04T22:50:57.525Z,7.30
2022-11-04T22:55:14.962Z,7.20
2022-11-04T22:59:32.360Z,7.10
2022-11-04T23:03:51.825Z,7.00
2022-11-04T23:08:09.490Z,6.90
2022-11-04T23:12:45.346Z,6.90
2022-11-04T23:17:26.297Z,6.80
2022-11-04T23:22:02.302Z,6.70
2022-11-04T23:26:22.463Z,6.70
2022-11-04T23:30:46.272Z,6.60
2022-11-04T23:35:22.190Z,6.60
2022-11-04T23:39:44.822Z,6.50
2022-11-04T23:44:02.083Z,6.40
2022-11-04T23:48:38.225Z,6.40
2022-11-04T23:53:14.356Z,6.30
2022-11-04T23:57:50.221Z,6.30
